createdAt,value
2022-12-15T00:00:19.951Z,25.13
2022-12-15T00:03:05.475Z,21.08
2022-12-15T00:05:51.319Z,25.58
2022-12-15T00:08:36.735Z,29.67
2022-12-15T00:11:23.684Z,35.20
2022-12-15T00:14:09.091Z,27.02
2022-12-15T00:16:54.522Z,22.23
2022-12-15T00:19:40.079Z,26.15
2022-12-15T00:22:25.342Z,21.48
2022-12-15T00:25:10.744Z,25.42
2022-12-15T00:27:56.037Z,34.45
2022-12-15T00:30:41.481Z,28.58
2022-12-15T00:33:30.995Z,26.88
2022-12-15T00:36:20.158Z,21.23
2022-12-15T00:38:47.471Z,28.67
2022-12-15T00:41:18.557Z,30.60
2022-12-15T00:43:46.267Z,27.88
2022-12-15T00:46:33.278Z,33.70
2022-12-15T00:49:01.515Z,36.33
2022-12-15T00:51:47.567Z,30.92
2022-12-15T00:54:33.216Z,26.42
2022-12-15T00:57:18.623Z,26.20
2022-12-15T01:00:04.057Z,24.88
2022-12-15T01:02:49.850Z,26.75
2022-12-15T01:05:35.418Z,32.53
2022-12-15T01:08:20.854Z,31.77
2022-12-15T01:11:06.198Z,28.55
2022-12-15T01:13:51.670Z,29.17
2022-12-15T01:16:37.114Z,32.90
2022-12-15T01:19:22.742Z,29.92
2022-12-15T01:21:49.701Z,21.80
2022-12-15T01:24:16.778Z,25.92
2022-12-15T01:26:43.635Z,27.90
2022-12-15T01:29:10.479Z,26.35
2022-12-15T01:31:37.339Z,26.67
2022-12-15T01:34:04.203Z,28.63
2022-12-15T01:36:31.191Z,34.65
2022-12-15T01:38:58.129Z,26.83
2022-12-15T01:41:25.216Z,25.85
2022-12-15T01:43:52.159Z,26.95
2022-12-15T01:46:24.463Z,25.63
2022-12-15T01:49:23.137Z,39.78
2022-12-15T01:51:59.655Z,31.23
2022-12-15T01:54:51.583Z,20.85
2022-12-15T01:57:30.830Z,31.00
2022-12-15T02:00:06.471Z,29.02
2022-12-15T02:02:40.352Z,29.77
2022-12-15T02:05:10.104Z,28.65
2022-12-15T02:07:36.974Z,26.40
2022-12-15T02:10:10.107Z,28.73
2022-12-15T02:13:17.567Z,30.33
2022-12-15T02:16:32.106Z,26.25
2022-12-15T02:19:45.340Z,30.63
2022-12-15T02:22:56.372Z,32.47
2022-12-15T02:26:08.319Z,28.15
2022-12-15T02:29:38.340Z,25.73
2022-12-15T02:32:16.724Z,29.27
2022-12-15T02:35:06.296Z,25.25
2022-12-15T02:37:39.123Z,29.42
2022-12-15T02:40:10.712Z,32.70
2022-12-15T02:42:52.045Z,30.00
2022-12-15T02:45:36.114Z,26.52
2022-12-15T02:48:21.444Z,32.58
2022-12-15T02:51:14.468Z,30.55
2022-12-15T02:54:30.354Z,22.90
2022-12-15T02:57:11.107Z,30.10
2022-12-15T02:59:55.362Z,28.23
2022-12-15T03:02:29.783Z,31.85
2022-12-15T03:04:58.817Z,32.08
2022-12-15T03:07:28.010Z,31.85
2022-12-15T03:10:01.005Z,30.15
2022-12-15T03:12:27.871Z,27.65
2022-12-15T03:14:54.770Z,29.30
2022-12-15T03:17:21.625Z,40.90
2022-12-15T03:19:49.844Z,32.88
2022-12-15T03:22:17.015Z,32.83
2022-12-15T03:24:43.866Z,28.25
2022-12-15T03:27:10.797Z,34.55
2022-12-15T03:29:37.945Z,30.98
2022-12-15T03:32:05.645Z,29.80
2022-12-15T03:34:32.598Z,30.15
2022-12-15T03:36:59.459Z,27.42
2022-12-15T03:39:26.410Z,26.02
2022-12-15T03:41:53.279Z,32.70
2022-12-15T03:44:20.906Z,25.35
2022-12-15T03:46:47.814Z,30.00
2022-12-15T03:49:14.673Z,31.15
2022-12-15T03:51:41.505Z,32.33
2022-12-15T03:54:08.773Z,31.17
2022-12-15T03:56:35.674Z,30.27
2022-12-15T03:59:03.117Z,29.70
2022-12-15T04:01:36.860Z,26.27
2022-12-15T04:04:05.051Z,27.88
2022-12-15T04:06:32.226Z,27.65
2022-12-15T04:08:59.200Z,25.25
2022-12-15T04:11:26.128Z,25.30
2022-12-15T04:13:53.073Z,23.27
2022-12-15T04:16:20.669Z,26.70
2022-12-15T04:19:11.331Z,24.90
2022-12-15T04:21:38.195Z,25.77
2022-12-15T04:24:24.287Z,24.95
2022-12-15T04:27:09.654Z,24.73
2022-12-15T04:29:55.111Z,33.60
2022-12-15T04:32:40.394Z,30.75
2022-12-15T04:35:26.934Z,30.83
2022-12-15T04:38:12.845Z,32.65
2022-12-15T04:40:58.306Z,27.73
2022-12-15T04:43:44.214Z,29.77
2022-12-15T04:46:29.521Z,28.02
2022-12-15T04:49:15.151Z,28.48
2022-12-15T04:52:00.513Z,27.15
2022-12-15T04:54:45.931Z,27.17
2022-12-15T04:57:31.591Z,30.60
2022-12-15T05:00:16.959Z,28.35
2022-12-15T05:03:02.467Z,29.48
2022-12-15T05:05:47.737Z,28.20
2022-12-15T05:08:33.221Z,31.15
2022-12-15T05:11:19.287Z,26.13
2022-12-15T05:14:04.575Z,36.15
2022-12-15T05:16:50.059Z,31.15
2022-12-15T05:19:35.488Z,34.22
2022-12-15T05:22:20.939Z,27.80
2022-12-15T05:25:06.451Z,34.28
2022-12-15T05:27:52.416Z,31.48
2022-12-15T05:30:37.996Z,28.80
2022-12-15T05:33:06.008Z,29.05
2022-12-15T05:35:32.846Z,30.10
2022-12-15T05:37:59.718Z,32.40
2022-12-15T05:40:26.590Z,30.98
2022-12-15T05:42:53.432Z,34.10
2022-12-15T05:45:21.346Z,26.20
2022-12-15T05:47:55.043Z,31.92
2022-12-15T05:50:23.489Z,31.30
2022-12-15T05:52:50.788Z,28.52
2022-12-15T05:55:19.079Z,27.83
2022-12-15T05:57:53.472Z,36.75
2022-12-15T06:00:21.807Z,34.30
2022-12-15T06:02:50.037Z,31.50
2022-12-15T06:05:17.868Z,36.63
2022-12-15T06:07:44.812Z,31.10
2022-12-15T06:10:13.101Z,20.60
2022-12-15T06:12:39.960Z,37.75
2022-12-15T06:15:07.612Z,32.65
2022-12-15T06:17:34.478Z,32.60
2022-12-15T06:20:01.670Z,34.10
2022-12-15T06:22:29.643Z,40.80
2022-12-15T06:24:56.642Z,36.60
2022-12-15T06:27:24.008Z,32.10
2022-12-15T06:29:51.708Z,28.83
2022-12-15T06:32:21.421Z,39.30
2022-12-15T06:34:49.518Z,35.97
2022-12-15T06:37:16.422Z,51.10
2022-12-15T06:39:43.389Z,43.15
2022-12-15T06:42:10.466Z,35.45
2022-12-15T06:44:37.399Z,34.58
2022-12-15T06:47:04.493Z,32.35
2022-12-15T06:49:31.896Z,37.95
2022-12-15T06:51:58.825Z,27.73
2022-12-15T06:54:25.688Z,32.17
2022-12-15T06:56:52.585Z,33.97
2022-12-15T06:59:22.906Z,31.02
2022-12-15T07:01:49.951Z,28.27
2022-12-15T07:04:17.364Z,31.77
2022-12-15T07:06:45.182Z,33.97
2022-12-15T07:09:18.270Z,32.72
2022-12-15T07:11:46.322Z,37.03
2022-12-15T07:14:13.173Z,31.45
2022-12-15T07:16:40.902Z,36.17
2022-12-15T07:19:14.144Z,30.60
2022-12-15T07:21:41.422Z,36.30
2022-12-15T07:24:12.790Z,36.03
2022-12-15T07:26:40.868Z,36.78
2022-12-15T07:29:07.801Z,33.65
2022-12-15T07:31:34.793Z,32.72
2022-12-15T07:34:01.738Z,34.72
2022-12-15T07:36:28.650Z,31.98
2022-12-15T07:39:04.728Z,30.75
2022-12-15T07:41:32.054Z,36.83
2022-12-15T07:43:59.586Z,35.42
2022-12-15T07:46:26.592Z,33.42
2022-12-15T07:48:53.523Z,36.45
2022-12-15T07:51:21.874Z,30.35
2022-12-15T07:53:50.927Z,41.83
2022-12-15T07:56:21.449Z,37.88
2022-12-15T07:58:49.351Z,44.03
2022-12-15T08:01:16.861Z,36.78
2022-12-15T08:03:44.963Z,32.80
2022-12-15T08:06:15.126Z,31.13
2022-12-15T08:08:49.927Z,32.65
2022-12-15T08:11:24.668Z,39.53
2022-12-15T08:14:13.521Z,39.60
2022-12-15T08:16:40.109Z,45.10
2022-12-15T08:19:13.029Z,42.55
2022-12-15T08:21:42.499Z,40.55
2022-12-15T08:24:11.004Z,46.50
2022-12-15T08:26:41.853Z,45.05
2022-12-15T08:32:01.868Z,43.75
2022-12-15T08:34:28.980Z,43.03
2022-12-15T08:36:55.904Z,45.25
2022-12-15T08:39:23.155Z,39.35
2022-12-15T08:41:50.746Z,42.70
2022-12-15T08:44:17.697Z,40.70
2022-12-15T08:46:44.701Z,43.78
2022-12-15T08:49:15.236Z,38.42
2022-12-15T08:51:44.924Z,46.35
2022-12-15T08:54:11.919Z,50.55
2022-12-15T08:56:38.894Z,43.42
2022-12-15T08:59:05.770Z,37.63
2022-12-15T09:03:43.838Z,35.75
2022-12-15T09:06:20.610Z,42.55
2022-12-15T09:08:48.573Z,35.58
2022-12-15T09:11:18.020Z,46.97
2022-12-15T09:13:44.925Z,40.60
2022-12-15T09:16:16.676Z,40.22
2022-12-15T09:18:48.277Z,40.83
2022-12-15T09:21:16.385Z,38.00
2022-12-15T09:23:47.531Z,37.70
2022-12-15T09:26:15.880Z,39.15
2022-12-15T09:28:44.170Z,42.70
2022-12-15T09:31:22.869Z,36.80
2022-12-15T09:33:53.728Z,37.05
2022-12-15T09:36:22.249Z,36.58
2022-12-15T09:38:49.779Z,38.47
2022-12-15T09:41:31.975Z,31.33
2022-12-15T09:44:21.067Z,31.50
2022-12-15T09:47:34.507Z,35.63
2022-12-15T09:50:10.447Z,28.45
2022-12-15T09:52:49.847Z,31.50
2022-12-15T09:55:30.251Z,33.53
2022-12-15T09:58:23.588Z,28.47
2022-12-15T10:01:07.925Z,31.67
2022-12-15T10:04:14.048Z,27.10
2022-12-15T10:07:11.971Z,28.33
2022-12-15T10:09:39.005Z,25.17
2022-12-15T10:12:32.703Z,24.70
2022-12-15T10:15:29.443Z,27.02
2022-12-15T10:18:22.579Z,25.77
2022-12-15T10:20:54.539Z,39.40
2022-12-15T10:23:21.690Z,30.73
2022-12-15T10:26:12.843Z,26.57
2022-12-15T10:29:18.329Z,27.83
2022-12-15T10:32:17.745Z,25.30
2022-12-15T10:34:45.637Z,27.15
2022-12-15T10:37:20.169Z,22.30
2022-12-15T10:39:51.101Z,24.00
2022-12-15T10:42:25.121Z,25.77
2022-12-15T10:44:58.660Z,21.53
2022-12-15T10:47:31.955Z,21.83
2022-12-15T10:50:25.117Z,24.70
2022-12-15T10:52:52.428Z,25.15
2022-12-15T10:55:49.855Z,30.95
2022-12-15T10:58:23.205Z,25.57
2022-12-15T11:01:18.050Z,26.97
2022-12-15T11:03:46.246Z,25.00
2022-12-15T11:06:31.448Z,23.25
2022-12-15T11:09:28.055Z,23.20
2022-12-15T11:12:13.799Z,28.50
2022-12-15T11:14:51.524Z,24.07
2022-12-15T11:17:23.932Z,27.48
2022-12-15T11:20:04.630Z,28.80
2022-12-15T11:22:55.053Z,26.08
2022-12-15T11:25:51.544Z,19.50
2022-12-15T11:28:50.561Z,26.08
2022-12-15T11:31:36.712Z,26.42
2022-12-15T11:34:13.060Z,22.15
2022-12-15T11:37:23.925Z,26.35
2022-12-15T11:40:39.694Z,21.40
2022-12-15T11:43:44.894Z,21.88
2022-12-15T11:46:24.034Z,20.15
2022-12-15T11:49:40.957Z,22.00
2022-12-15T11:53:00.519Z,26.33
2022-12-15T11:56:23.678Z,18.58
2022-12-15T11:59:39.981Z,18.35
2022-12-15T12:02:41.980Z,24.53
2022-12-15T12:06:23.615Z,27.30
2022-12-15T12:09:31.763Z,32.92
2022-12-15T12:12:50.475Z,21.67
2022-12-15T12:15:54.427Z,16.57
2022-12-15T12:18:36.517Z,21.10
2022-12-15T12:21:25.346Z,20.67
2022-12-15T12:24:11.703Z,17.90
2022-12-15T12:26:50.245Z,19.87
2022-12-15T12:29:37.691Z,19.52
2022-12-15T12:32:48.196Z,12.53
2022-12-15T12:35:44.542Z,24.08
2022-12-15T12:38:13.798Z,25.85
2022-12-15T12:40:40.557Z,20.77
2022-12-15T12:43:17.698Z,24.75
2022-12-15T12:46:19.177Z,20.63
2022-12-15T12:49:07.982Z,14.35
2022-12-15T12:51:48.863Z,14.10
2022-12-15T12:54:34.473Z,16.88
2022-12-15T12:57:10.968Z,15.10
2022-12-15T12:59:49.169Z,15.65
2022-12-15T13:02:24.485Z,33.33
2022-12-15T13:05:00.331Z,20.05
2022-12-15T13:07:43.047Z,17.85
2022-12-15T13:10:21.086Z,18.38
2022-12-15T13:12:59.131Z,16.08
2022-12-15T13:15:35.695Z,14.27
2022-12-15T13:18:26.867Z,17.15
2022-12-15T13:20:58.393Z,16.70
2022-12-15T13:23:25.754Z,18.98
2022-12-15T13:25:55.845Z,15.57
2022-12-15T13:28:44.337Z,12.93
2022-12-15T13:31:19.200Z,16.00
2022-12-15T13:33:52.533Z,14.73
2022-12-15T13:36:38.263Z,16.90
2022-12-15T13:39:17.128Z,19.30
2022-12-15T13:42:32.799Z,16.10
2022-12-15T13:45:11.685Z,26.58
2022-12-15T13:47:39.158Z,13.38
2022-12-15T13:50:43.989Z,14.13
2022-12-15T13:53:26.637Z,22.23
2022-12-15T13:56:14.493Z,22.40
2022-12-15T13:59:00.586Z,13.85
2022-12-15T14:01:32.943Z,17.77
2022-12-15T14:04:22.670Z,15.05
2022-12-15T14:07:00.764Z,16.45
2022-12-15T14:09:42.168Z,15.55
2022-12-15T14:12:14.127Z,16.20
2022-12-15T14:14:49.478Z,11.13
2022-12-15T14:17:19.642Z,9.73
2022-12-15T14:19:50.957Z,14.18
2022-12-15T14:22:30.582Z,14.75
2022-12-15T14:25:29.602Z,15.77
2022-12-15T14:27:57.306Z,14.68
2022-12-15T14:30:32.977Z,10.32
2022-12-15T14:33:07.611Z,13.93
2022-12-15T14:35:49.442Z,18.02
2022-12-15T14:38:58.382Z,14.20
2022-12-15T14:41:37.162Z,13.60
2022-12-15T14:44:39.163Z,14.65
2022-12-15T14:47:22.683Z,12.85
2022-12-15T14:49:51.289Z,12.75
2022-12-15T14:52:38.701Z,19.77
2022-12-15T14:55:37.894Z,12.68
2022-12-15T14:58:34.567Z,19.48
2022-12-15T15:01:04.118Z,15.27
2022-12-15T15:03:40.654Z,11.55
2022-12-15T15:06:18.894Z,33.90
2022-12-15T15:08:52.947Z,16.17
2022-12-15T15:11:29.451Z,16.90
2022-12-15T15:14:04.790Z,16.67
2022-12-15T15:16:31.937Z,15.25
2022-12-15T15:19:04.397Z,11.45
2022-12-15T15:21:37.116Z,14.80
2022-12-15T15:24:30.234Z,13.23
2022-12-15T15:27:36.330Z,17.33
2022-12-15T15:30:23.783Z,23.90
2022-12-15T15:33:01.855Z,19.48
2022-12-15T15:35:34.354Z,18.50
2022-12-15T15:38:33.483Z,17.40
2022-12-15T15:41:16.850Z,15.57
2022-12-15T15:43:44.343Z,15.48
2022-12-15T15:46:16.273Z,11.93
2022-12-15T15:48:53.782Z,10.98
2022-12-15T15:51:23.605Z,12.80
2022-12-15T15:53:50.765Z,14.27
2022-12-15T15:56:18.627Z,13.77
2022-12-15T15:58:46.476Z,12.05
2022-12-15T16:01:13.803Z,14.50
2022-12-15T16:03:41.974Z,13.40
2022-12-15T16:06:21.769Z,11.43
2022-12-15T16:08:54.588Z,10.55
2022-12-15T16:11:30.832Z,13.95
2022-12-15T16:13:57.751Z,14.10
2022-12-15T16:16:32.816Z,11.20
2022-12-15T16:18:59.855Z,21.80
2022-12-15T16:21:28.139Z,18.60
2022-12-15T16:23:57.797Z,12.20
2022-12-15T16:26:33.280Z,12.10
2022-12-15T16:29:00.313Z,10.32
2022-12-15T16:31:41.258Z,12.85
2022-12-15T16:34:08.998Z,11.48
2022-12-15T16:36:36.432Z,17.33
2022-12-15T16:39:04.272Z,14.55
2022-12-15T16:41:31.392Z,16.40
2022-12-15T16:43:58.569Z,12.98
2022-12-15T16:46:25.852Z,10.65
2022-12-15T16:48:53.430Z,12.93
2022-12-15T16:51:40.041Z,19.90
2022-12-15T16:54:15.545Z,12.02
2022-12-15T16:56:42.707Z,15.15
2022-12-15T16:59:36.265Z,13.63
2022-12-15T17:02:26.954Z,15.88
2022-12-15T17:04:55.202Z,11.73
2022-12-15T17:07:26.471Z,10.63
2022-12-15T17:09:53.566Z,9.73
2022-12-15T17:12:20.486Z,12.77
2022-12-15T17:14:47.345Z,14.00
2022-12-15T17:17:19.768Z,11.13
2022-12-15T17:22:34.394Z,11.50
2022-12-15T17:25:01.431Z,13.25
2022-12-15T17:27:30.084Z,10.18
2022-12-15T17:30:01.066Z,11.65
2022-12-15T17:32:27.942Z,74.60
2022-12-15T17:34:54.825Z,34.25
2022-12-15T17:37:21.810Z,39.60
2022-12-15T17:39:51.254Z,20.73
2022-12-15T17:42:21.092Z,42.00
2022-12-15T17:44:49.201Z,19.95
2022-12-15T17:47:19.011Z,48.10
2022-12-15T17:49:47.164Z,16.67
2022-12-15T17:52:28.490Z,13.90
2022-12-15T17:54:56.392Z,19.33
2022-12-15T17:57:23.479Z,10.50
2022-12-15T17:59:50.362Z,16.30
2022-12-15T18:02:17.424Z,11.57
2022-12-15T18:04:44.891Z,9.18
2022-12-15T18:07:23.888Z,12.18
2022-12-15T18:09:52.719Z,10.32
2022-12-15T18:12:25.599Z,18.92
2022-12-15T18:14:55.273Z,13.00
2022-12-15T18:17:23.735Z,13.15
2022-12-15T18:19:50.757Z,17.55
2022-12-15T18:22:24.392Z,26.67
2022-12-15T18:24:53.875Z,11.98
2022-12-15T18:27:28.802Z,14.88
2022-12-15T18:29:57.083Z,12.85
2022-12-15T18:32:29.709Z,8.75
2022-12-15T18:34:56.665Z,13.57
2022-12-15T18:37:24.954Z,17.60
2022-12-15T18:39:53.714Z,15.18
2022-12-15T18:42:22.956Z,14.38
2022-12-15T18:44:53.103Z,11.07
2022-12-15T18:47:23.322Z,13.30
2022-12-15T18:49:50.468Z,19.00
2022-12-15T18:52:23.114Z,50.63
2022-12-15T18:54:53.791Z,18.88
2022-12-15T18:57:39.256Z,15.10
2022-12-15T19:00:18.695Z,17.20
2022-12-15T19:02:46.093Z,11.85
2022-12-15T19:05:28.567Z,16.08
2022-12-15T19:08:27.391Z,14.02
2022-12-15T19:11:07.600Z,12.88
2022-12-15T19:13:38.700Z,11.23
2022-12-15T19:16:17.206Z,13.02
2022-12-15T19:19:03.420Z,17.08
2022-12-15T19:21:43.080Z,15.23
2022-12-15T19:24:44.661Z,12.63
2022-12-15T19:27:20.685Z,10.18
2022-12-15T19:29:49.861Z,16.80
2022-12-15T19:32:20.043Z,12.15
2022-12-15T19:34:47.096Z,11.52
2022-12-15T19:37:30.866Z,10.90
2022-12-15T19:40:01.466Z,13.40
2022-12-15T19:42:35.292Z,13.63
2022-12-15T19:45:16.976Z,15.90
2022-12-15T19:47:44.340Z,13.40
2022-12-15T19:50:19.623Z,13.63
2022-12-15T19:52:52.955Z,14.55
2022-12-15T19:55:32.527Z,13.90
2022-12-15T19:58:00.876Z,11.85
2022-12-15T20:00:27.904Z,12.05
2022-12-15T20:02:57.266Z,15.23
2022-12-15T20:05:25.694Z,14.55
2022-12-15T20:07:55.019Z,13.10
2022-12-15T20:10:31.841Z,13.57
2022-12-15T20:13:00.974Z,15.77
2022-12-15T20:15:28.361Z,13.98
2022-12-15T20:17:58.189Z,12.73
2022-12-15T20:20:29.000Z,14.30
2022-12-15T20:23:05.280Z,14.93
2022-12-15T20:25:38.053Z,16.83
2022-12-15T20:28:35.540Z,14.25
2022-12-15T20:31:02.902Z,15.43
2022-12-15T20:33:30.072Z,13.25
2022-12-15T20:35:57.202Z,12.95
2022-12-15T20:38:32.595Z,16.58
2022-12-15T20:41:02.756Z,18.30
2022-12-15T20:43:33.034Z,17.10
2022-12-15T20:46:16.111Z,12.73
2022-12-15T20:48:44.873Z,14.32
2022-12-15T20:51:33.634Z,16.27
2022-12-15T20:54:03.490Z,18.38
2022-12-15T20:56:30.618Z,17.92
2022-12-15T20:58:59.063Z,17.58
2022-12-15T21:01:32.780Z,20.45
2022-12-15T21:04:17.208Z,15.32
2022-12-15T21:06:44.468Z,18.98
2022-12-15T21:09:14.702Z,23.58
2022-12-15T21:11:42.366Z,16.30
2022-12-15T21:14:20.261Z,19.75
2022-12-15T21:16:47.385Z,14.05
2022-12-15T21:19:23.116Z,16.48
2022-12-15T21:21:54.871Z,18.60
2022-12-15T21:24:27.959Z,18.08
2022-12-15T21:26:55.811Z,19.13
2022-12-15T21:29:27.781Z,18.17
2022-12-15T21:31:54.873Z,22.83
2022-12-15T21:34:21.824Z,20.80
2022-12-15T21:36:55.229Z,22.75
2022-12-15T21:39:33.876Z,18.13
2022-12-15T21:42:21.699Z,20.75
2022-12-15T21:44:48.899Z,20.92
2022-12-15T21:47:48.150Z,29.52
2022-12-15T21:50:18.614Z,21.48
2022-12-15T21:52:47.482Z,19.27
2022-12-15T21:55:22.911Z,26.33
2022-12-15T21:57:49.963Z,25.80
2022-12-15T22:00:21.272Z,28.75
2022-12-15T22:02:51.800Z,25.58
2022-12-15T22:05:32.404Z,32.00
2022-12-15T22:08:22.018Z,29.58
2022-12-15T22:10:52.022Z,24.77
2022-12-15T22:13:23.339Z,28.92
2022-12-15T22:15:51.044Z,27.70
2022-12-15T22:18:22.481Z,22.05
2022-12-15T22:20:50.664Z,22.73
2022-12-15T22:23:20.723Z,34.78
2022-12-15T22:25:55.549Z,31.83
2022-12-15T22:28:27.680Z,24.05
2022-12-15T22:30:56.551Z,23.58
2022-12-15T22:33:26.330Z,30.75
2022-12-15T22:35:56.103Z,34.35
2022-12-15T22:38:24.574Z,26.17
2022-12-15T22:40:56.848Z,28.92
2022-12-15T22:43:38.103Z,29.08
2022-12-15T22:46:12.396Z,65.72
2022-12-15T22:48:45.384Z,32.47
2022-12-15T22:51:16.181Z,25.98
2022-12-15T22:53:43.125Z,54.97
2022-12-15T22:56:28.184Z,25.45
2022-12-15T22:59:12.509Z,26.77
2022-12-15T23:01:39.580Z,26.52
2022-12-15T23:04:06.612Z,24.00
2022-12-15T23:06:33.496Z,26.52
2022-12-15T23:09:00.377Z,33.45
2022-12-15T23:11:39.790Z,28.02
2022-12-15T23:14:15.348Z,32.17
2022-12-15T23:16:45.608Z,27.08
2022-12-15T23:19:23.852Z,31.15
2022-12-15T23:21:51.905Z,26.50
2022-12-15T23:24:19.029Z,31.52
2022-12-15T23:26:45.902Z,33.42
2022-12-15T23:29:12.913Z,30.77
2022-12-15T23:31:39.923Z,32.03
2022-12-15T23:34:07.127Z,31.23
2022-12-15T23:36:34.033Z,30.80
2022-12-15T23:39:00.921Z,33.47
2022-12-15T23:41:29.201Z,36.53
2022-12-15T23:43:56.229Z,26.38
2022-12-15T23:46:23.148Z,25.73
2022-12-15T23:48:50.165Z,25.60
2022-12-15T23:51:20.701Z,32.67
2022-12-15T23:53:48.319Z,32.58
2022-12-15T23:56:23.129Z,29.70
2022-12-15T23:58:58.591Z,30.70
